sensor_id;sensor_type;location;lat;lon;timestamp;temperature;humidity
53904;DHT22;39812;52.430;16.936;2024-01-30T00:01:17;2.30;99.90
53904;DHT22;39812;52.430;16.936;2024-01-30T00:03:43;1.60;99.90
53904;DHT22;39812;52.430;16.936;2024-01-30T00:13:27;2.30;99.90
53904;DHT22;39812;52.430;16.936;2024-01-30T00:15:52;4.10;99.90
53904;DHT22;39812;52.430;16.936;2024-01-30T00:18:18;2.60;99.90
53904;DHT22;39812;52.430;16.936;2024-01-30T00:25:36;2.00;99.90
53904;DHT22;39812;52.430;16.936;2024-01-30T00:28:01;2.40;99.90
53904;DHT22;39812;52.430;16.936;2024-01-30T00:30:27;0.90;99.90
53904;DHT22;39812;52.430;16.936;2024-01-30T00:32:53;2.30;99.90
53904;DHT22;39812;52.430;16.936;2024-01-30T00:35:19;2.50;99.90
53904;DHT22;39812;52.430;16.936;2024-01-30T00:37:45;2.70;99.90
53904;DHT22;39812;52.430;16.936;2024-01-30T00:40:10;1.80;99.90
53904;DHT22;39812;52.430;16.936;2024-01-30T00:42:41;1.10;99.90
53904;DHT22;39812;52.430;16.936;2024-01-30T00:45:12;1.90;99.90
53904;DHT22;39812;52.430;16.936;2024-01-30T00:50:04;1.60;99.90
53904;DHT22;39812;52.430;16.936;2024-01-30T00:52:30;3.00;99.90
53904;DHT22;39812;52.430;16.936;2024-01-30T00:57:21;0.40;99.90
53904;DHT22;39812;52.430;16.936;2024-01-30T00:59:48;0.50;99.90
53904;DHT22;39812;52.430;16.936;2024-01-30T01:02:14;2.50;99.90
53904;DHT22;39812;52.430;16.936;2024-01-30T01:07:06;0.90;99.90
53904;DHT22;39812;52.430;16.936;2024-01-30T01:09:32;1.90;99.90
53904;DHT22;39812;52.430;16.936;2024-01-30T01:11:58;1.10;99.90
53904;DHT22;39812;52.430;16.936;2024-01-30T01:14:23;1.00;99.90
53904;DHT22;39812;52.430;16.936;2024-01-30T01:21:41;2.20;99.90
53904;DHT22;39812;52.430;16.936;2024-01-30T01:26:32;0.50;99.90
53904;DHT22;39812;52.430;16.936;2024-01-30T01:28:58;0.20;99.90
53904;DHT22;39812;52.430;16.936;2024-01-30T01:31:23;3.10;99.90
53904;DHT22;39812;52.430;16.936;2024-01-30T01:41:08;2.30;99.90
53904;DHT22;39812;52.430;16.936;2024-01-30T01:45:59;1.70;99.90
53904;DHT22;39812;52.430;16.936;2024-01-30T01:48:26;0.70;99.90
53904;DHT22;39812;52.430;16.936;2024-01-30T01:50:52;1.70;99.90
53904;DHT22;39812;52.430;16.936;2024-01-30T01:53:18;2.70;99.90
53904;DHT22;39812;52.430;16.936;2024-01-30T01:58:10;1.30;99.90
53904;DHT22;39812;52.430;16.936;2024-01-30T02:00:38;0.30;99.90
53904;DHT22;39812;52.430;16.936;2024-01-30T02:03:06;0.40;99.90
53904;DHT22;39812;52.430;16.936;2024-01-30T02:05:33;0.20;99.90
53904;DHT22;39812;52.430;16.936;2024-01-30T02:07:59;0.50;99.90
53904;DHT22;39812;52.430;16.936;2024-01-30T02:10:25;0.60;99.90
53904;DHT22;39812;52.430;16.936;2024-01-30T02:12:50;1.60;99.90
53904;DHT22;39812;52.430;16.936;2024-01-30T02:15:16;1.90;99.90
53904;DHT22;39812;52.430;16.936;2024-01-30T02:17:41;0.30;99.90
53904;DHT22;39812;52.430;16.936;2024-01-30T02:20:07;0.30;99.90
53904;DHT22;39812;52.430;16.936;2024-01-30T02:22:34;0.40;99.90
53904;DHT22;39812;52.430;16.936;2024-01-30T02:25:01;1.50;99.90
53904;DHT22;39812;52.430;16.936;2024-01-30T02:44:28;1.10;99.90
53904;DHT22;39812;52.430;16.936;2024-01-30T02:46:54;1.40;99.90
53904;DHT22;39812;52.430;16.936;2024-01-30T02:51:47;0.50;99.90
53904;DHT22;39812;52.430;16.936;2024-01-30T02:54:12;1.90;99.90
53904;DHT22;39812;52.430;16.936;2024-01-30T02:56:38;0.50;99.90
53904;DHT22;39812;52.430;16.936;2024-01-30T02:59:03;1.80;99.90
53904;DHT22;39812;52.430;16.936;2024-01-30T03:06:20;0.30;99.90
53904;DHT22;39812;52.430;16.936;2024-01-30T03:16:06;0.80;99.90
53904;DHT22;39812;52.430;16.936;2024-01-30T03:18:31;1.00;99.90
53904;DHT22;39812;52.430;16.936;2024-01-30T03:20:57;0.90;99.90
53904;DHT22;39812;52.430;16.936;2024-01-30T03:23:22;-0.10;99.90
53904;DHT22;39812;52.430;16.936;2024-01-30T03:25:48;1.90;99.90
53904;DHT22;39812;52.430;16.936;2024-01-30T03:28:14;1.90;99.90
53904;DHT22;39812;52.430;16.936;2024-01-30T03:37:57;3.50;99.90
53904;DHT22;39812;52.430;16.936;2024-01-30T03:45:15;0.50;99.90
53904;DHT22;39812;52.430;16.936;2024-01-30T03:47:43;1.00;99.90
53904;DHT22;39812;52.430;16.936;2024-01-30T03:50:09;0.30;99.90
53904;DHT22;39812;52.430;16.936;2024-01-30T03:55:00;0.30;99.90
53904;DHT22;39812;52.430;16.936;2024-01-30T03:57:26;0.40;99.90
53904;DHT22;39812;52.430;16.936;2024-01-30T03:59:51;0.30;99.90
53904;DHT22;39812;52.430;16.936;2024-01-30T04:04:43;1.70;99.90
53904;DHT22;39812;52.430;16.936;2024-01-30T04:12:00;0.60;99.90
53904;DHT22;39812;52.430;16.936;2024-01-30T04:14:28;1.00;99.90
53904;DHT22;39812;52.430;16.936;2024-01-30T04:16:53;0.00;99.90
53904;DHT22;39812;52.430;16.936;2024-01-30T04:19:19;1.30;99.90
53904;DHT22;39812;52.430;16.936;2024-01-30T04:21:44;0.20;99.90
53904;DHT22;39812;52.430;16.936;2024-01-30T04:24:10;1.70;99.90
53904;DHT22;39812;52.430;16.936;2024-01-30T04:29:02;-0.10;99.90
53904;DHT22;39812;52.430;16.936;2024-01-30T04:31:28;1.70;99.90
53904;DHT22;39812;52.430;16.936;2024-01-30T04:33:53;2.10;99.90
53904;DHT22;39812;52.430;16.936;2024-01-30T04:46:04;1.40;99.90
53904;DHT22;39812;52.430;16.936;2024-01-30T04:48:29;2.10;99.90
53904;DHT22;39812;52.430;16.936;2024-01-30T04:55:47;0.40;99.90
53904;DHT22;39812;52.430;16.936;2024-01-30T05:03:05;0.70;99.90
53904;DHT22;39812;52.430;16.936;2024-01-30T05:05:30;-1.10;99.90
53904;DHT22;39812;52.430;16.936;2024-01-30T05:10:22;1.70;99.90
53904;DHT22;39812;52.430;16.936;2024-01-30T05:12:47;1.50;99.90
53904;DHT22;39812;52.430;16.936;2024-01-30T05:15:13;1.80;99.90
53904;DHT22;39812;52.430;16.936;2024-01-30T05:20:05;0.70;99.90
53904;DHT22;39812;52.430;16.936;2024-01-30T05:24:57;3.10;99.90
53904;DHT22;39812;52.430;16.936;2024-01-30T05:27:23;1.40;99.90
53904;DHT22;39812;52.430;16.936;2024-01-30T05:29:48;0.90;99.90
53904;DHT22;39812;52.430;16.936;2024-01-30T05:32:15;1.70;99.90
53904;DHT22;39812;52.430;16.936;2024-01-30T05:34:40;1.50;99.90
53904;DHT22;39812;52.430;16.936;2024-01-30T05:37:06;1.20;99.90
53904;DHT22;39812;52.430;16.936;2024-01-30T05:39:31;2.10;99.90
53904;DHT22;39812;52.430;16.936;2024-01-30T05:46:50;0.70;99.90
53904;DHT22;39812;52.430;16.936;2024-01-30T05:54:07;0.60;99.90
53904;DHT22;39812;52.430;16.936;2024-01-30T05:56:33;1.40;99.90
53904;DHT22;39812;52.430;16.936;2024-01-30T05:58:58;1.00;99.90
53904;DHT22;39812;52.430;16.936;2024-01-30T06:06:16;1.80;99.90
53904;DHT22;39812;52.430;16.936;2024-01-30T06:11:10;1.90;99.90
53904;DHT22;39812;52.430;16.936;2024-01-30T06:13:37;1.90;99.90
53904;DHT22;39812;52.430;16.936;2024-01-30T06:28:14;1.30;99.90
53904;DHT22;39812;52.430;16.936;2024-01-30T06:33:05;1.70;99.90
53904;DHT22;39812;52.430;16.936;2024-01-30T06:42:49;0.80;99.90
53904;DHT22;39812;52.430;16.936;2024-01-30T06:47:41;1.50;99.90
53904;DHT22;39812;52.430;16.936;2024-01-30T06:50:07;1.70;99.90
53904;DHT22;39812;52.430;16.936;2024-01-30T06:54:59;0.70;99.90
53904;DHT22;39812;52.430;16.936;2024-01-30T07:04:45;1.00;99.90
53904;DHT22;39812;52.430;16.936;2024-01-30T07:14:31;1.20;99.90
53904;DHT22;39812;52.430;16.936;2024-01-30T07:24:14;1.00;99.90
53904;DHT22;39812;52.430;16.936;2024-01-30T07:26:40;1.50;99.90
53904;DHT22;39812;52.430;16.936;2024-01-30T07:29:06;2.90;99.90
53904;DHT22;39812;52.430;16.936;2024-01-30T07:31:32;2.10;99.90
53904;DHT22;39812;52.430;16.936;2024-01-30T07:33:57;2.60;99.90
53904;DHT22;39812;52.430;16.936;2024-01-30T07:38:49;2.00;99.90
53904;DHT22;39812;52.430;16.936;2024-01-30T07:46:06;2.40;99.90
53904;DHT22;39812;52.430;16.936;2024-01-30T07:48:33;2.80;99.90
53904;DHT22;39812;52.430;16.936;2024-01-30T07:50:59;2.60;99.90
53904;DHT22;39812;52.430;16.936;2024-01-30T07:55:52;1.80;99.90
53904;DHT22;39812;52.430;16.936;2024-01-30T08:00:44;3.30;99.90
53904;DHT22;39812;52.430;16.936;2024-01-30T08:03:10;4.80;99.90
53904;DHT22;39812;52.430;16.936;2024-01-30T08:05:35;5.50;99.90
53904;DHT22;39812;52.430;16.936;2024-01-30T08:08:01;3.00;99.90
53904;DHT22;39812;52.430;16.936;2024-01-30T08:10:27;3.70;99.90
53904;DHT22;39812;52.430;16.936;2024-01-30T08:12:52;3.70;99.90
53904;DHT22;39812;52.430;16.936;2024-01-30T08:17:44;2.70;99.90
53904;DHT22;39812;52.430;16.936;2024-01-30T08:20:10;3.20;99.90
53904;DHT22;39812;52.430;16.936;2024-01-30T08:22:38;5.10;99.90
53904;DHT22;39812;52.430;16.936;2024-01-30T08:25:06;4.20;99.90
53904;DHT22;39812;52.430;16.936;2024-01-30T08:27:31;4.90;99.90
53904;DHT22;39812;52.430;16.936;2024-01-30T08:34:49;4.50;99.90
53904;DHT22;39812;52.430;16.936;2024-01-30T08:37:15;3.80;99.90
53904;DHT22;39812;52.430;16.936;2024-01-30T08:44:33;3.20;99.90
53904;DHT22;39812;52.430;16.936;2024-01-30T08:46:59;5.90;99.90
53904;DHT22;39812;52.430;16.936;2024-01-30T08:49:24;5.50;99.90
53904;DHT22;39812;52.430;16.936;2024-01-30T08:51:50;4.20;99.90
53904;DHT22;39812;52.430;16.936;2024-01-30T08:54:16;4.20;99.90
53904;DHT22;39812;52.430;16.936;2024-01-30T09:01:33;5.30;99.90
53904;DHT22;39812;52.430;16.936;2024-01-30T09:06:24;6.50;99.90
53904;DHT22;39812;52.430;16.936;2024-01-30T09:08:53;6.80;99.90
53904;DHT22;39812;52.430;16.936;2024-01-30T09:11:19;6.50;99.90
53904;DHT22;39812;52.430;16.936;2024-01-30T09:16:10;5.60;99.90
53904;DHT22;39812;52.430;16.936;2024-01-30T09:18:36;5.50;99.90
53904;DHT22;39812;52.430;16.936;2024-01-30T09:21:01;6.30;99.90
53904;DHT22;39812;52.430;16.936;2024-01-30T09:23:27;5.60;99.90
53904;DHT22;39812;52.430;16.936;2024-01-30T09:30:45;6.60;99.90
53904;DHT22;39812;52.430;16.936;2024-01-30T09:35:36;6.60;99.90
53904;DHT22;39812;52.430;16.936;2024-01-30T09:42:55;7.00;98.90
53904;DHT22;39812;52.430;16.936;2024-01-30T09:45:24;6.80;98.90
53904;DHT22;39812;52.430;16.936;2024-01-30T09:47:50;7.00;98.00
53904;DHT22;39812;52.430;16.936;2024-01-30T09:52:46;5.40;99.90
53904;DHT22;39812;52.430;16.936;2024-01-30T09:55:12;7.10;98.80
53904;DHT22;39812;52.430;16.936;2024-01-30T09:57:38;6.90;99.40
53904;DHT22;39812;52.430;16.936;2024-01-30T10:00:05;8.50;99.90
53904;DHT22;39812;52.430;16.936;2024-01-30T10:02:33;6.70;99.90
53904;DHT22;39812;52.430;16.936;2024-01-30T10:04:59;6.40;99.90
53904;DHT22;39812;52.430;16.936;2024-01-30T10:07:25;8.40;99.90
53904;DHT22;39812;52.430;16.936;2024-01-30T10:12:17;7.30;99.90
53904;DHT22;39812;52.430;16.936;2024-01-30T10:14:43;8.10;99.90
53904;DHT22;39812;52.430;16.936;2024-01-30T10:17:09;5.50;99.90
53904;DHT22;39812;52.430;16.936;2024-01-30T10:19:39;6.90;97.60
53904;DHT22;39812;52.430;16.936;2024-01-30T10:22:05;8.10;99.90
53904;DHT22;39812;52.430;16.936;2024-01-30T10:26:57;7.30;99.90
53904;DHT22;39812;52.430;16.936;2024-01-30T10:32:03;8.10;99.90
53904;DHT22;39812;52.430;16.936;2024-01-30T10:37:08;7.60;97.80
53904;DHT22;39812;52.430;16.936;2024-01-30T10:39:45;7.10;99.90
53904;DHT22;39812;52.430;16.936;2024-01-30T10:42:18;7.90;99.90
53904;DHT22;39812;52.430;16.936;2024-01-30T10:44:56;7.20;96.70
53904;DHT22;39812;52.430;16.936;2024-01-30T10:47:27;7.30;96.50
53904;DHT22;39812;52.430;16.936;2024-01-30T10:49:54;8.00;99.90
53904;DHT22;39812;52.430;16.936;2024-01-30T10:52:20;6.80;99.90
53904;DHT22;39812;52.430;16.936;2024-01-30T10:57:12;7.70;99.90
53904;DHT22;39812;52.430;16.936;2024-01-30T10:59:39;9.40;99.90
53904;DHT22;39812;52.430;16.936;2024-01-30T11:02:05;9.80;96.20
53904;DHT22;39812;52.430;16.936;2024-01-30T11:04:38;8.10;95.30
53904;DHT22;39812;52.430;16.936;2024-01-30T11:07:19;8.10;95.20
53904;DHT22;39812;52.430;16.936;2024-01-30T11:09:53;9.60;99.90
53904;DHT22;39812;52.430;16.936;2024-01-30T11:12:23;8.30;94.80
53904;DHT22;39812;52.430;16.936;2024-01-30T11:15:00;8.40;94.80
53904;DHT22;39812;52.430;16.936;2024-01-30T11:19:54;8.40;99.90
53904;DHT22;39812;52.430;16.936;2024-01-30T11:22:22;9.30;94.40
53904;DHT22;39812;52.430;16.936;2024-01-30T11:24:48;9.70;99.90
53904;DHT22;39812;52.430;16.936;2024-01-30T11:27:15;8.60;94.10
53904;DHT22;39812;52.430;16.936;2024-01-30T11:34:33;9.90;99.90
53904;DHT22;39812;52.430;16.936;2024-01-30T11:37:03;9.90;99.90
53904;DHT22;39812;52.430;16.936;2024-01-30T11:41:58;9.20;93.20
53904;DHT22;39812;52.430;16.936;2024-01-30T11:46:52;9.30;93.10
53904;DHT22;39812;52.430;16.936;2024-01-30T11:49:18;10.80;99.90
53904;DHT22;39812;52.430;16.936;2024-01-30T11:51:47;9.70;99.90
53904;DHT22;39812;52.430;16.936;2024-01-30T11:54:15;8.70;98.50
53904;DHT22;39812;52.430;16.936;2024-01-30T11:59:07;9.30;99.20
53904;DHT22;39812;52.430;16.936;2024-01-30T12:01:33;10.40;99.40
53904;DHT22;39812;52.430;16.936;2024-01-30T12:03:59;10.80;98.60
53904;DHT22;39812;52.430;16.936;2024-01-30T12:06:25;11.30;97.80
53904;DHT22;39812;52.430;16.936;2024-01-30T12:09:01;12.70;97.40
53904;DHT22;39812;52.430;16.936;2024-01-30T12:11:29;12.60;94.50
53904;DHT22;39812;52.430;16.936;2024-01-30T12:13:56;13.00;86.30
53904;DHT22;39812;52.430;16.936;2024-01-30T12:16:22;13.30;94.60
53904;DHT22;39812;52.430;16.936;2024-01-30T12:18:48;14.20;94.10
53904;DHT22;39812;52.430;16.936;2024-01-30T12:21:16;14.30;81.50
53904;DHT22;39812;52.430;16.936;2024-01-30T12:23:42;14.90;92.80
53904;DHT22;39812;52.430;16.936;2024-01-30T12:26:08;16.00;92.50
53904;DHT22;39812;52.430;16.936;2024-01-30T12:31:03;16.60;81.20
53904;DHT22;39812;52.430;16.936;2024-01-30T12:33:30;15.00;91.80
53904;DHT22;39812;52.430;16.936;2024-01-30T12:35:56;14.80;77.60
53904;DHT22;39812;52.430;16.936;2024-01-30T12:38:25;12.60;91.20
53904;DHT22;39812;52.430;16.936;2024-01-30T12:40:54;16.00;92.20
53904;DHT22;39812;52.430;16.936;2024-01-30T12:43:21;14.40;77.80
53904;DHT22;39812;52.430;16.936;2024-01-30T12:45:47;16.70;91.10
53904;DHT22;39812;52.430;16.936;2024-01-30T12:48:13;17.00;90.50
53904;DHT22;39812;52.430;16.936;2024-01-30T12:50:38;15.90;89.00
53904;DHT22;39812;52.430;16.936;2024-01-30T12:53:04;16.30;88.60
53904;DHT22;39812;52.430;16.936;2024-01-30T12:57:57;18.70;86.90
53904;DHT22;39812;52.430;16.936;2024-01-30T13:00:22;18.20;86.00
53904;DHT22;39812;52.430;16.936;2024-01-30T13:02:48;19.50;84.40
53904;DHT22;39812;52.430;16.936;2024-01-30T13:05:14;19.00;83.30
53904;DHT22;39812;52.430;16.936;2024-01-30T13:07:39;19.80;81.60
53904;DHT22;39812;52.430;16.936;2024-01-30T13:10:05;20.60;80.00
53904;DHT22;39812;52.430;16.936;2024-01-30T13:12:31;19.40;78.80
53904;DHT22;39812;52.430;16.936;2024-01-30T13:15:01;20.30;77.60
53904;DHT22;39812;52.430;16.936;2024-01-30T13:17:27;20.80;61.90
53904;DHT22;39812;52.430;16.936;2024-01-30T13:19:53;22.60;76.90
53904;DHT22;39812;52.430;16.936;2024-01-30T13:22:19;20.30;61.30
53904;DHT22;39812;52.430;16.936;2024-01-30T13:24:47;21.10;77.90
53904;DHT22;39812;52.430;16.936;2024-01-30T13:29:38;20.90;77.00
53904;DHT22;39812;52.430;16.936;2024-01-30T13:32:04;18.80;74.30
53904;DHT22;39812;52.430;16.936;2024-01-30T13:34:30;19.90;74.00
53904;DHT22;39812;52.430;16.936;2024-01-30T13:36:55;21.50;75.00
53904;DHT22;39812;52.430;16.936;2024-01-30T13:39:21;22.20;74.50
53904;DHT22;39812;52.430;16.936;2024-01-30T13:41:49;23.30;73.10
53904;DHT22;39812;52.430;16.936;2024-01-30T13:44:15;23.20;72.70
53904;DHT22;39812;52.430;16.936;2024-01-30T13:46:42;23.20;74.10
53904;DHT22;39812;52.430;16.936;2024-01-30T13:51:33;20.30;58.50
53904;DHT22;39812;52.430;16.936;2024-01-30T13:53:59;20.00;74.50
53904;DHT22;39812;52.430;16.936;2024-01-30T13:56:24;20.60;75.60
53904;DHT22;39812;52.430;16.936;2024-01-30T13:58:52;19.40;60.70
53904;DHT22;39812;52.430;16.936;2024-01-30T14:03:43;18.70;77.50
53904;DHT22;39812;52.430;16.936;2024-01-30T14:06:09;18.20;62.60
53904;DHT22;39812;52.430;16.936;2024-01-30T14:11:00;20.30;79.10
53904;DHT22;39812;52.430;16.936;2024-01-30T14:13:26;14.80;78.00
53904;DHT22;39812;52.430;16.936;2024-01-30T14:15:52;16.90;80.80
53904;DHT22;39812;52.430;16.936;2024-01-30T14:18:18;18.10;82.30
53904;DHT22;39812;52.430;16.936;2024-01-30T14:20:43;16.90;82.20
53904;DHT22;39812;52.430;16.936;2024-01-30T14:23:09;18.70;81.80
53904;DHT22;39812;52.430;16.936;2024-01-30T14:25:34;17.40;81.20
53904;DHT22;39812;52.430;16.936;2024-01-30T14:30:26;19.00;81.50
53904;DHT22;39812;52.430;16.936;2024-01-30T14:40:11;16.80;85.30
53904;DHT22;39812;52.430;16.936;2024-01-30T14:42:36;15.10;87.80
53904;DHT22;39812;52.430;16.936;2024-01-30T14:45:03;14.60;90.40
53904;DHT22;39812;52.430;16.936;2024-01-30T14:47:29;10.10;90.60
53904;DHT22;39812;52.430;16.936;2024-01-30T14:49:56;14.00;92.80
53904;DHT22;39812;52.430;16.936;2024-01-30T14:52:21;9.90;93.10
53904;DHT22;39812;52.430;16.936;2024-01-30T14:59:40;9.10;95.80
53904;DHT22;39812;52.430;16.936;2024-01-30T15:02:06;12.00;97.40
53904;DHT22;39812;52.430;16.936;2024-01-30T15:09:23;9.70;98.90
53904;DHT22;39812;52.430;16.936;2024-01-30T15:11:51;9.70;99.40
53904;DHT22;39812;52.430;16.936;2024-01-30T15:16:43;10.20;99.90
53904;DHT22;39812;52.430;16.936;2024-01-30T15:19:08;8.00;99.90
53904;DHT22;39812;52.430;16.936;2024-01-30T15:21:34;8.70;99.90
53904;DHT22;39812;52.430;16.936;2024-01-30T15:23:59;7.90;99.90
53904;DHT22;39812;52.430;16.936;2024-01-30T15:26:25;8.10;99.90
53904;DHT22;39812;52.430;16.936;2024-01-30T15:28:51;9.30;99.90
53904;DHT22;39812;52.430;16.936;2024-01-30T15:31:17;9.50;99.90
53904;DHT22;39812;52.430;16.936;2024-01-30T15:33:43;8.60;99.90
53904;DHT22;39812;52.430;16.936;2024-01-30T15:36:09;6.40;99.90
53904;DHT22;39812;52.430;16.936;2024-01-30T15:41:02;6.70;99.90
53904;DHT22;39812;52.430;16.936;2024-01-30T15:43:27;8.10;99.90
53904;DHT22;39812;52.430;16.936;2024-01-30T15:45:53;6.50;99.90
53904;DHT22;39812;52.430;16.936;2024-01-30T15:48:19;8.80;97.90
53904;DHT22;39812;52.430;16.936;2024-01-30T15:50:45;2.80;99.90
53904;DHT22;39812;52.430;16.936;2024-01-30T15:53:11;7.10;99.90
53904;DHT22;39812;52.430;16.936;2024-01-30T15:58:03;6.30;98.50
53904;DHT22;39812;52.430;16.936;2024-01-30T16:02:56;6.40;99.90
53904;DHT22;39812;52.430;16.936;2024-01-30T16:05:23;4.50;99.90
53904;DHT22;39812;52.430;16.936;2024-01-30T16:07:49;6.00;99.90
53904;DHT22;39812;52.430;16.936;2024-01-30T16:10:14;7.70;99.90
53904;DHT22;39812;52.430;16.936;2024-01-30T16:12:42;6.00;99.90
53904;DHT22;39812;52.430;16.936;2024-01-30T16:15:14;7.60;99.90
53904;DHT22;39812;52.430;16.936;2024-01-30T16:17:41;7.70;99.90
53904;DHT22;39812;52.430;16.936;2024-01-30T16:20:07;7.30;99.90
53904;DHT22;39812;52.430;16.936;2024-01-30T16:24:59;5.80;99.90
53904;DHT22;39812;52.430;16.936;2024-01-30T16:27:25;6.00;99.90
53904;DHT22;39812;52.430;16.936;2024-01-30T16:29:51;5.60;99.90
53904;DHT22;39812;52.430;16.936;2024-01-30T16:34:42;6.10;99.90
53904;DHT22;39812;52.430;16.936;2024-01-30T16:37:10;6.50;99.90
53904;DHT22;39812;52.430;16.936;2024-01-30T16:42:01;6.00;99.90
53904;DHT22;39812;52.430;16.936;2024-01-30T16:44:27;5.70;99.90
53904;DHT22;39812;52.430;16.936;2024-01-30T16:54:11;5.80;99.90
53904;DHT22;39812;52.430;16.936;2024-01-30T16:59:03;6.00;99.90
53904;DHT22;39812;52.430;16.936;2024-01-30T17:01:28;5.10;99.90
53904;DHT22;39812;52.430;16.936;2024-01-30T17:06:20;6.90;99.90
53904;DHT22;39812;52.430;16.936;2024-01-30T17:11:11;6.70;99.90
53904;DHT22;39812;52.430;16.936;2024-01-30T17:13:37;6.70;99.90
53904;DHT22;39812;52.430;16.936;2024-01-30T17:16:03;5.70;99.90
53904;DHT22;39812;52.430;16.936;2024-01-30T17:18:30;7.50;99.90
53904;DHT22;39812;52.430;16.936;2024-01-30T17:20:55;7.50;99.90
53904;DHT22;39812;52.430;16.936;2024-01-30T17:23:21;4.70;99.90
53904;DHT22;39812;52.430;16.936;2024-01-30T17:25:50;5.70;99.90
53904;DHT22;39812;52.430;16.936;2024-01-30T17:28:16;5.30;99.90
53904;DHT22;39812;52.430;16.936;2024-01-30T17:33:07;7.30;99.90
53904;DHT22;39812;52.430;16.936;2024-01-30T17:35:33;4.60;99.90
53904;DHT22;39812;52.430;16.936;2024-01-30T17:40:27;5.80;99.90
53904;DHT22;39812;52.430;16.936;2024-01-30T17:42:53;5.50;99.90
53904;DHT22;39812;52.430;16.936;2024-01-30T17:45:18;5.50;99.90
53904;DHT22;39812;52.430;16.936;2024-01-30T17:47:44;6.00;99.90
53904;DHT22;39812;52.430;16.936;2024-01-30T17:50:10;6.90;99.90
53904;DHT22;39812;52.430;16.936;2024-01-30T17:52:35;6.90;99.90
53904;DHT22;39812;52.430;16.936;2024-01-30T17:55:01;6.50;99.90
53904;DHT22;39812;52.430;16.936;2024-01-30T17:59:52;5.80;99.90
53904;DHT22;39812;52.430;16.936;2024-01-30T18:02:18;5.60;99.90
53904;DHT22;39812;52.430;16.936;2024-01-30T18:04:43;7.00;99.90
53904;DHT22;39812;52.430;16.936;2024-01-30T18:07:09;7.40;99.90
53904;DHT22;39812;52.430;16.936;2024-01-30T18:09:35;5.40;99.90
53904;DHT22;39812;52.430;16.936;2024-01-30T18:12:00;3.50;99.90
53904;DHT22;39812;52.430;16.936;2024-01-30T18:19:18;6.80;99.90
53904;DHT22;39812;52.430;16.936;2024-01-30T18:21:43;7.40;99.90
53904;DHT22;39812;52.430;16.936;2024-01-30T18:24:09;6.30;99.90
53904;DHT22;39812;52.430;16.936;2024-01-30T18:26:36;6.90;99.90
53904;DHT22;39812;52.430;16.936;2024-01-30T18:29:01;5.70;99.90
53904;DHT22;39812;52.430;16.936;2024-01-30T18:31:27;5.70;99.90
53904;DHT22;39812;52.430;16.936;2024-01-30T18:36:23;6.40;99.90
53904;DHT22;39812;52.430;16.936;2024-01-30T18:38:49;5.50;99.90
53904;DHT22;39812;52.430;16.936;2024-01-30T18:41:15;3.50;99.90
53904;DHT22;39812;52.430;16.936;2024-01-30T18:43:41;6.00;99.90
53904;DHT22;39812;52.430;16.936;2024-01-30T18:46:08;7.20;99.90
53904;DHT22;39812;52.430;16.936;2024-01-30T18:48:35;7.10;99.90
53904;DHT22;39812;52.430;16.936;2024-01-30T18:51:02;7.00;99.90
53904;DHT22;39812;52.430;16.936;2024-01-30T18:53:27;5.50;99.90
53904;DHT22;39812;52.430;16.936;2024-01-30T18:58:19;5.50;99.90
53904;DHT22;39812;52.430;16.936;2024-01-30T19:00:44;7.00;99.90
53904;DHT22;39812;52.430;16.936;2024-01-30T19:03:10;5.80;99.90
53904;DHT22;39812;52.430;16.936;2024-01-30T19:05:36;6.70;99.90
53904;DHT22;39812;52.430;16.936;2024-01-30T19:08:02;5.40;99.90
53904;DHT22;39812;52.430;16.936;2024-01-30T19:10:28;5.70;99.90
53904;DHT22;39812;52.430;16.936;2024-01-30T19:15:19;6.10;99.90
53904;DHT22;39812;52.430;16.936;2024-01-30T19:17:45;5.70;99.90
53904;DHT22;39812;52.430;16.936;2024-01-30T19:20:11;6.20;99.90
53904;DHT22;39812;52.430;16.936;2024-01-30T19:22:36;6.70;99.90
53904;DHT22;39812;52.430;16.936;2024-01-30T19:25:03;6.30;99.90
53904;DHT22;39812;52.430;16.936;2024-01-30T19:27:30;6.80;99.90
53904;DHT22;39812;52.430;16.936;2024-01-30T19:29:56;6.70;99.90
53904;DHT22;39812;52.430;16.936;2024-01-30T19:32:22;6.40;99.90
53904;DHT22;39812;52.430;16.936;2024-01-30T19:34:47;7.10;99.90
53904;DHT22;39812;52.430;16.936;2024-01-30T19:39:39;4.00;99.90
53904;DHT22;39812;52.430;16.936;2024-01-30T19:42:05;4.30;99.90
53904;DHT22;39812;52.430;16.936;2024-01-30T19:44:31;6.50;99.90
53904;DHT22;39812;52.430;16.936;2024-01-30T19:49:28;6.80;99.90
53904;DHT22;39812;52.430;16.936;2024-01-30T19:54:29;5.70;99.90
53904;DHT22;39812;52.430;16.936;2024-01-30T19:56:54;4.50;99.90
53904;DHT22;39812;52.430;16.936;2024-01-30T19:59:20;6.40;99.90
53904;DHT22;39812;52.430;16.936;2024-01-30T20:01:46;4.90;99.90
53904;DHT22;39812;52.430;16.936;2024-01-30T20:04:11;5.60;99.90
53904;DHT22;39812;52.430;16.936;2024-01-30T20:06:37;6.60;99.90
53904;DHT22;39812;52.430;16.936;2024-01-30T20:11:29;4.70;99.90
53904;DHT22;39812;52.430;16.936;2024-01-30T20:16:21;5.90;99.90
53904;DHT22;39812;52.430;16.936;2024-01-30T20:21:13;6.90;99.90
53904;DHT22;39812;52.430;16.936;2024-01-30T20:23:39;5.00;99.90
53904;DHT22;39812;52.430;16.936;2024-01-30T20:28:31;6.60;99.90
53904;DHT22;39812;52.430;16.936;2024-01-30T20:30:57;6.30;99.90
53904;DHT22;39812;52.430;16.936;2024-01-30T20:33:23;6.70;99.90
53904;DHT22;39812;52.430;16.936;2024-01-30T20:40:42;5.30;99.90
53904;DHT22;39812;52.430;16.936;2024-01-30T20:45:34;6.80;99.90
53904;DHT22;39812;52.430;16.936;2024-01-30T20:47:59;4.70;99.90
53904;DHT22;39812;52.430;16.936;2024-01-30T20:50:26;6.30;99.90
53904;DHT22;39812;52.430;16.936;2024-01-30T20:52:52;5.80;99.90
53904;DHT22;39812;52.430;16.936;2024-01-30T20:55:17;6.30;99.90
53904;DHT22;39812;52.430;16.936;2024-01-30T21:00:10;5.80;99.90
53904;DHT22;39812;52.430;16.936;2024-01-30T21:05:04;5.40;99.00
53904;DHT22;39812;52.430;16.936;2024-01-30T21:07:30;6.00;99.90
53904;DHT22;39812;52.430;16.936;2024-01-30T21:09:55;6.20;99.90
53904;DHT22;39812;52.430;16.936;2024-01-30T21:24:34;5.60;99.90
53904;DHT22;39812;52.430;16.936;2024-01-30T21:29:25;4.80;99.90
53904;DHT22;39812;52.430;16.936;2024-01-30T21:34:17;5.60;99.90
53904;DHT22;39812;52.430;16.936;2024-01-30T21:39:08;6.10;99.90
53904;DHT22;39812;52.430;16.936;2024-01-30T21:41:34;4.60;99.90
53904;DHT22;39812;52.430;16.936;2024-01-30T21:46:26;4.80;99.90
53904;DHT22;39812;52.430;16.936;2024-01-30T21:48:52;4.70;99.90
53904;DHT22;39812;52.430;16.936;2024-01-30T21:51:18;4.70;99.90
53904;DHT22;39812;52.430;16.936;2024-01-30T21:53:43;5.80;99.90
53904;DHT22;39812;52.430;16.936;2024-01-30T21:56:09;6.10;99.90
53904;DHT22;39812;52.430;16.936;2024-01-30T21:58:35;5.00;99.90
53904;DHT22;39812;52.430;16.936;2024-01-30T22:01:01;5.60;99.90